createdAt,value
2023-06-30T00:02:00.665Z,98990.63
2023-06-30T00:04:31.475Z,98985.42
2023-06-30T00:06:59.168Z,98985.42
2023-06-30T00:09:26.711Z,98987.30
2023-06-30T00:11:55.012Z,98985.21
2023-06-30T00:14:22.871Z,98979.98
2023-06-30T00:16:51.026Z,98978.31
2023-06-30T00:19:18.716Z,98984.84
2023-06-30T00:21:46.269Z,98983.53
2023-06-30T00:24:14.314Z,98985.70
2023-06-30T00:26:41.894Z,98976.55
2023-06-30T00:29:10.072Z,98973.11
2023-06-30T00:31:37.777Z,98973.88
2023-06-30T00:34:05.294Z,98972.69
2023-06-30T00:36:32.677Z,98971.46
2023-06-30T00:39:00.701Z,98971.19
2023-06-30T00:41:28.135Z,98968.84
2023-06-30T00:43:57.041Z,98974.04
2023-06-30T00:46:24.470Z,98980.65
2023-06-30T00:48:51.792Z,98976.90
2023-06-30T00:51:19.092Z,98974.41
2023-06-30T00:53:46.534Z,98977.67
2023-06-30T00:56:14.042Z,98974.87
2023-06-30T00:58:41.388Z,98981.90
2023-06-30T01:01:17.155Z,98984.52
2023-06-30T01:03:48.471Z,98979.90
2023-06-30T01:06:17.685Z,98975.88
2023-06-30T01:08:56.811Z,98981.61
2023-06-30T01:11:25.712Z,98982.99
2023-06-30T01:13:54.635Z,98981.41
2023-06-30T01:16:24.001Z,98986.90
2023-06-30T01:18:54.216Z,98984.23
2023-06-30T01:21:22.973Z,98983.58
2023-06-30T01:23:55.689Z,98986.11
2023-06-30T01:26:23.401Z,98983.09
2023-06-30T01:28:52.298Z,98976.41
2023-06-30T01:31:20.704Z,98974.40
2023-06-30T01:33:48.179Z,98978.23
2023-06-30T01:36:15.555Z,98990.37
2023-06-30T01:38:44.128Z,98992.50
2023-06-30T01:41:11.606Z,98988.33
2023-06-30T01:43:40.114Z,98990.08
2023-06-30T01:46:07.519Z,98986.73
2023-06-30T01:48:35.002Z,98997.20
2023-06-30T01:51:02.424Z,98996.80
2023-06-30T01:53:29.771Z,98994.01
2023-06-30T01:55:57.073Z,98992.01
2023-06-30T01:58:24.411Z,98998.73
2023-06-30T02:00:51.812Z,99004.45
2023-06-30T02:03:19.303Z,99004.65
2023-06-30T02:05:50.219Z,99007.07
2023-06-30T02:08:17.724Z,99004.98
2023-06-30T02:10:45.109Z,99011.11
2023-06-30T02:13:12.549Z,99016.50
2023-06-30T02:15:39.921Z,99015.19
2023-06-30T02:18:07.355Z,99009.44
2023-06-30T02:20:36.382Z,99012.19
2023-06-30T02:23:04.275Z,99010.58
2023-06-30T02:25:31.576Z,99007.17
2023-06-30T02:27:59.062Z,99009.21
2023-06-30T02:30:26.403Z,99004.40
2023-06-30T02:32:54.646Z,99007.23
2023-06-30T02:35:22.276Z,99012.39
2023-06-30T02:37:49.693Z,99012.42
2023-06-30T02:42:56.950Z,99020.60
2023-06-30T02:45:24.560Z,99013.29
2023-06-30T02:47:52.063Z,99008.55
2023-06-30T02:50:23.569Z,99006.50
2023-06-30T02:52:53.194Z,99005.61
2023-06-30T02:55:20.643Z,99008.66
2023-06-30T02:57:48.556Z,99007.14
2023-06-30T03:00:16.696Z,99004.00
2023-06-30T03:02:44.256Z,99002.81
2023-06-30T03:05:11.808Z,99005.10
2023-06-30T03:07:39.918Z,99003.90
2023-06-30T03:10:08.646Z,99004.45
2023-06-30T03:12:36.718Z,99004.80
2023-06-30T03:15:05.250Z,99004.05
2023-06-30T03:17:33.372Z,99005.31
2023-06-30T03:20:01.254Z,98999.41
2023-06-30T03:22:28.616Z,99002.22
2023-06-30T03:24:58.705Z,99005.65
2023-06-30T03:27:26.146Z,99006.95
2023-06-30T03:29:53.548Z,99004.09
2023-06-30T03:32:20.939Z,98999.89
2023-06-30T03:34:48.361Z,98996.20
2023-06-30T03:37:15.669Z,98997.08
2023-06-30T03:39:43.159Z,99001.38
2023-06-30T03:42:10.592Z,99010.73
2023-06-30T03:44:38.935Z,99011.84
2023-06-30T03:47:06.344Z,99002.54
2023-06-30T03:49:33.620Z,98999.91
2023-06-30T03:52:01.965Z,99005.48
2023-06-30T03:54:29.286Z,98992.80
2023-06-30T03:56:58.264Z,98992.54
2023-06-30T03:59:25.678Z,98996.23
2023-06-30T04:01:53.955Z,99000.98
2023-06-30T04:04:22.249Z,99003.38
2023-06-30T04:06:49.781Z,99003.06
2023-06-30T04:09:17.207Z,98999.46
2023-06-30T04:11:44.526Z,98997.40
2023-06-30T04:14:11.841Z,98997.86
2023-06-30T04:16:39.278Z,98998.09
2023-06-30T04:19:06.820Z,98996.98
2023-06-30T04:21:34.156Z,98992.57
2023-06-30T04:24:01.485Z,98990.48
2023-06-30T04:26:29.776Z,98992.70
2023-06-30T04:28:57.680Z,98995.50
2023-06-30T04:31:27.964Z,98999.94
2023-06-30T04:33:55.892Z,99003.33
2023-06-30T04:36:23.313Z,99007.62
2023-06-30T04:38:51.170Z,99005.23
2023-06-30T04:41:19.325Z,99006.42
2023-06-30T04:43:46.629Z,99014.35
2023-06-30T04:46:13.985Z,99015.14
2023-06-30T04:48:41.350Z,99012.94
2023-06-30T04:51:08.703Z,99012.14
2023-06-30T04:53:36.889Z,99013.65
2023-06-30T04:56:04.407Z,99012.67
2023-06-30T04:58:31.793Z,99010.09
2023-06-30T05:00:59.195Z,99013.16
2023-06-30T05:03:26.636Z,99010.77
2023-06-30T05:05:54.024Z,99000.85
2023-06-30T05:08:21.708Z,98998.32
2023-06-30T05:10:49.231Z,98994.05
2023-06-30T05:13:16.613Z,99000.98
2023-06-30T05:15:44.285Z,99004.08
2023-06-30T05:18:12.018Z,99006.55
2023-06-30T05:20:40.529Z,99007.89
2023-06-30T05:23:07.834Z,99007.81
2023-06-30T05:25:35.760Z,99008.75
2023-06-30T05:28:03.904Z,99003.45
2023-06-30T05:30:31.305Z,99009.13
2023-06-30T05:32:58.649Z,99011.71
2023-06-30T05:35:26.066Z,99012.00
2023-06-30T05:37:53.368Z,99010.86
2023-06-30T05:40:20.826Z,99010.14
2023-06-30T05:42:48.137Z,99010.64
2023-06-30T05:45:15.476Z,99005.23
2023-06-30T05:47:42.815Z,99010.45
2023-06-30T05:50:10.396Z,99011.16
2023-06-30T05:52:37.939Z,99008.13
2023-06-30T05:55:05.844Z,99006.73
2023-06-30T05:57:34.707Z,99007.57
2023-06-30T06:00:02.168Z,99007.91
2023-06-30T06:02:39.408Z,99006.45
2023-06-30T06:05:07.272Z,99006.57
2023-06-30T06:07:35.687Z,99004.45
2023-06-30T06:10:03.142Z,99004.75
2023-06-30T06:12:30.853Z,99004.47
2023-06-30T06:14:58.216Z,99010.60
2023-06-30T06:17:25.557Z,99009.90
2023-06-30T06:19:53.198Z,99010.64
2023-06-30T06:22:20.550Z,99007.48
2023-06-30T06:24:47.845Z,99011.16
2023-06-30T06:27:15.243Z,99008.21
2023-06-30T06:29:42.540Z,99010.19
2023-06-30T06:32:09.986Z,99011.34
2023-06-30T06:34:37.369Z,99005.71
2023-06-30T06:37:04.996Z,98998.29
2023-06-30T06:39:32.340Z,99000.77
2023-06-30T06:41:59.663Z,99009.81
2023-06-30T06:44:27.010Z,99012.16
2023-06-30T06:47:32.925Z,99011.34
2023-06-30T06:50:01.947Z,99010.29
2023-06-30T06:52:29.367Z,99008.84
2023-06-30T06:54:56.697Z,99009.70
2023-06-30T06:57:24.017Z,99010.11
2023-06-30T06:59:51.325Z,99007.24
2023-06-30T07:02:18.685Z,99004.04
2023-06-30T07:04:46.057Z,99006.64
2023-06-30T07:07:13.429Z,99006.85
2023-06-30T07:09:40.815Z,99006.64
2023-06-30T07:12:08.631Z,99007.40
2023-06-30T07:14:36.937Z,99007.75
2023-06-30T07:17:04.628Z,99003.23
2023-06-30T07:19:32.021Z,99006.10
2023-06-30T07:21:59.295Z,99008.00
2023-06-30T07:24:26.717Z,99002.19
2023-06-30T07:26:55.256Z,98999.53
2023-06-30T07:29:22.785Z,99000.61
2023-06-30T07:31:50.372Z,99005.14
2023-06-30T07:34:20.319Z,99003.71
2023-06-30T07:36:47.699Z,99000.44
2023-06-30T07:39:15.099Z,99005.30
2023-06-30T07:41:42.580Z,99003.84
2023-06-30T07:44:12.917Z,99008.59
2023-06-30T07:46:40.239Z,99007.30
2023-06-30T07:49:07.644Z,99006.81
2023-06-30T07:51:35.026Z,99008.58
2023-06-30T07:54:06.365Z,99006.97
2023-06-30T07:56:33.908Z,99002.90
2023-06-30T07:59:01.260Z,99003.45
2023-06-30T08:01:28.561Z,99004.75
2023-06-30T08:03:56.209Z,99003.20
2023-06-30T08:06:23.924Z,99000.04
2023-06-30T08:08:51.535Z,98994.56
2023-06-30T08:11:18.888Z,98997.34
2023-06-30T08:13:46.188Z,98999.54
2023-06-30T08:16:14.162Z,99001.38
2023-06-30T08:18:51.315Z,98998.23
2023-06-30T08:21:20.030Z,99001.70
2023-06-30T08:23:47.631Z,99000.64
2023-06-30T08:26:15.837Z,98995.64
2023-06-30T08:28:43.340Z,98995.20
2023-06-30T08:31:10.724Z,98995.85
2023-06-30T08:33:40.947Z,98998.20
2023-06-30T08:36:08.719Z,99001.09
2023-06-30T08:38:36.064Z,98999.84
2023-06-30T08:41:04.550Z,99004.24
2023-06-30T08:43:32.440Z,98997.23
2023-06-30T08:46:02.490Z,98998.27
2023-06-30T08:48:30.563Z,98998.45
2023-06-30T08:50:59.555Z,98998.68
2023-06-30T08:53:28.777Z,98992.70
2023-06-30T08:55:57.168Z,98994.52
2023-06-30T08:58:26.750Z,98994.70
2023-06-30T09:00:54.974Z,98997.66
2023-06-30T09:03:22.894Z,98994.33
2023-06-30T09:05:56.058Z,98997.67
2023-06-30T09:08:26.961Z,99000.63
2023-06-30T09:10:57.386Z,99000.78
2023-06-30T09:13:25.014Z,98999.64
2023-06-30T09:15:54.888Z,99000.46
2023-06-30T09:18:22.304Z,99000.41
2023-06-30T09:20:49.632Z,99002.48
2023-06-30T09:23:17.915Z,98999.01
2023-06-30T09:25:45.921Z,99004.89
2023-06-30T09:28:15.696Z,99005.91
2023-06-30T09:30:47.558Z,99004.56
2023-06-30T09:33:16.392Z,99000.03
2023-06-30T09:35:46.292Z,99001.95
2023-06-30T09:38:18.924Z,99001.73
2023-06-30T09:40:48.286Z,98997.98
2023-06-30T09:43:26.696Z,98999.00
2023-06-30T09:46:01.473Z,98995.03
2023-06-30T09:48:35.790Z,98994.48
2023-06-30T09:51:03.204Z,98986.27
2023-06-30T09:53:39.503Z,98986.15
2023-06-30T09:56:07.826Z,98988.77
2023-06-30T09:58:37.194Z,98985.09
2023-06-30T10:01:04.772Z,98980.86
2023-06-30T10:03:33.198Z,98977.45
2023-06-30T10:06:00.632Z,98978.27
2023-06-30T10:08:27.940Z,98970.45
2023-06-30T10:10:55.744Z,98968.77
2023-06-30T10:13:23.488Z,98964.23
2023-06-30T10:15:50.858Z,98973.34
2023-06-30T10:18:18.876Z,98961.51
2023-06-30T10:20:49.513Z,98962.39
2023-06-30T10:23:20.248Z,98955.71
2023-06-30T10:25:47.940Z,98960.27
2023-06-30T10:28:15.871Z,98959.48
2023-06-30T10:30:43.298Z,98951.48
2023-06-30T10:33:10.714Z,98955.91
2023-06-30T10:35:38.934Z,98957.70
2023-06-30T10:38:06.435Z,98962.36
2023-06-30T10:40:34.162Z,98966.55
2023-06-30T10:43:01.570Z,98958.55
2023-06-30T10:45:30.403Z,98952.34
2023-06-30T10:47:58.854Z,98948.45
2023-06-30T10:50:26.311Z,98952.05
2023-06-30T10:52:54.696Z,98949.78
2023-06-30T10:55:23.870Z,98944.80
2023-06-30T10:57:52.938Z,98945.61
2023-06-30T11:00:26.694Z,98945.59
2023-06-30T11:03:00.832Z,98937.92
2023-06-30T11:05:29.909Z,98931.70
2023-06-30T11:08:04.712Z,98932.59
2023-06-30T11:10:36.131Z,98930.51
2023-06-30T11:13:05.104Z,98920.89
2023-06-30T11:15:46.330Z,98918.73
2023-06-30T11:18:22.377Z,98913.46
2023-06-30T11:20:59.656Z,98906.17
2023-06-30T11:23:37.932Z,98908.30
2023-06-30T11:26:15.483Z,98908.41
2023-06-30T11:28:43.578Z,98908.41
2023-06-30T11:31:14.276Z,98900.44
2023-06-30T11:33:42.384Z,98893.00
2023-06-30T11:36:16.513Z,98889.74
2023-06-30T11:38:47.707Z,98888.73
2023-06-30T11:41:21.889Z,98888.26
2023-06-30T11:43:55.034Z,98889.86
2023-06-30T11:46:22.877Z,98886.86
2023-06-30T11:48:50.675Z,98901.05
2023-06-30T11:51:18.411Z,98908.34
2023-06-30T11:53:49.090Z,98908.77
2023-06-30T11:56:19.178Z,98916.46
2023-06-30T11:58:53.360Z,98926.83
2023-06-30T12:01:23.481Z,98931.52
2023-06-30T12:04:01.154Z,98937.77
2023-06-30T12:06:29.463Z,98941.73
2023-06-30T12:08:59.753Z,98948.36
2023-06-30T12:11:29.700Z,98952.89
2023-06-30T12:13:57.013Z,98950.37
2023-06-30T12:16:27.768Z,98947.15
2023-06-30T12:18:55.035Z,98945.79
2023-06-30T12:21:22.493Z,98945.52
2023-06-30T12:23:49.834Z,98936.84
2023-06-30T12:26:17.177Z,98929.75
2023-06-30T12:28:44.529Z,98916.61
2023-06-30T12:31:11.882Z,98916.30
2023-06-30T12:33:39.347Z,98914.88
2023-06-30T12:36:07.537Z,98920.05
2023-06-30T12:38:34.990Z,98933.45
2023-06-30T12:41:02.863Z,98944.30
2023-06-30T12:43:31.997Z,98952.30
2023-06-30T12:45:59.446Z,98965.35
2023-06-30T12:48:26.796Z,98971.75
2023-06-30T12:50:57.368Z,98975.42
2023-06-30T12:53:25.055Z,98977.77
2023-06-30T12:55:53.949Z,98994.41
2023-06-30T12:58:21.370Z,99009.09
2023-06-30T13:00:48.752Z,99021.90
2023-06-30T13:03:16.303Z,99036.30
2023-06-30T13:05:43.801Z,99054.89
2023-06-30T13:08:11.162Z,99064.05
2023-06-30T13:10:38.536Z,99057.00
2023-06-30T13:13:05.857Z,99055.66
2023-06-30T13:15:33.486Z,99046.00
2023-06-30T13:18:00.868Z,99064.60
2023-06-30T13:20:28.290Z,99063.33
2023-06-30T13:23:10.123Z,99064.96
2023-06-30T13:25:39.908Z,99051.29
2023-06-30T13:28:07.253Z,99042.59
2023-06-30T13:30:35.905Z,99032.13
2023-06-30T13:33:03.289Z,99027.59
2023-06-30T13:35:32.066Z,99027.14
2023-06-30T13:37:59.396Z,99018.15
2023-06-30T13:40:26.973Z,99016.93
2023-06-30T13:42:55.196Z,99017.13
2023-06-30T13:45:22.584Z,99013.69
2023-06-30T13:47:50.224Z,99016.98
2023-06-30T13:50:17.610Z,99013.30
2023-06-30T13:52:45.002Z,99011.39
2023-06-30T13:55:12.434Z,98997.77
2023-06-30T13:57:39.800Z,98988.33
2023-06-30T14:00:07.734Z,98971.98
2023-06-30T14:02:35.196Z,98962.92
2023-06-30T14:05:02.986Z,98977.53
2023-06-30T14:07:30.544Z,98981.02
2023-06-30T14:09:59.363Z,98994.00
2023-06-30T14:12:26.737Z,98999.91
2023-06-30T14:14:54.357Z,98998.58
2023-06-30T14:17:21.793Z,98991.48
2023-06-30T14:19:51.378Z,98986.11
2023-06-30T14:22:19.771Z,98984.10
2023-06-30T14:24:47.136Z,98984.14
2023-06-30T14:27:14.615Z,98982.00
2023-06-30T14:29:43.668Z,98982.98
2023-06-30T14:32:11.216Z,98986.39
2023-06-30T14:34:39.539Z,98993.73
2023-06-30T14:37:06.893Z,98997.80
2023-06-30T14:39:34.199Z,98986.45
2023-06-30T14:42:02.957Z,98985.31
2023-06-30T14:44:30.504Z,98977.85
2023-06-30T14:46:59.894Z,98972.36
2023-06-30T14:49:27.749Z,98958.62
2023-06-30T14:51:55.127Z,98950.02
2023-06-30T14:54:22.478Z,98947.01
2023-06-30T14:56:49.967Z,98952.77
2023-06-30T15:00:08.547Z,98971.79
2023-06-30T15:02:36.231Z,98972.54
2023-06-30T15:05:04.628Z,98970.61
2023-06-30T15:07:32.923Z,98960.48
2023-06-30T15:10:01.254Z,98954.75
2023-06-30T15:12:28.616Z,98958.91
2023-06-30T15:14:56.003Z,98960.58
2023-06-30T15:17:23.571Z,98961.28
2023-06-30T15:19:51.323Z,98955.59
2023-06-30T15:22:18.956Z,98948.75
2023-06-30T15:24:46.353Z,98948.52
2023-06-30T15:27:13.742Z,98950.38
2023-06-30T15:29:41.178Z,98950.30
2023-06-30T15:32:08.682Z,98951.17
2023-06-30T15:34:36.069Z,98947.80
2023-06-30T15:37:04.772Z,98944.34
2023-06-30T15:39:32.681Z,98952.59
2023-06-30T15:42:00.271Z,98959.46
2023-06-30T15:44:27.641Z,98965.50
2023-06-30T15:46:54.977Z,98976.50
2023-06-30T15:49:22.707Z,98983.85
2023-06-30T15:51:53.162Z,98989.97
2023-06-30T15:54:20.604Z,98991.13
2023-06-30T15:56:48.227Z,98991.08
2023-06-30T15:59:15.609Z,98994.89
2023-06-30T16:01:44.198Z,98994.11
2023-06-30T16:04:11.689Z,98994.03
2023-06-30T16:06:39.158Z,98993.04
2023-06-30T16:09:06.594Z,98994.33
2023-06-30T16:11:33.905Z,99002.83
2023-06-30T16:14:01.227Z,99001.20
2023-06-30T16:16:30.016Z,99004.35
2023-06-30T16:18:57.463Z,98997.42
2023-06-30T16:21:24.916Z,98995.89
2023-06-30T16:23:52.316Z,98992.10
2023-06-30T16:26:22.561Z,98996.16
2023-06-30T16:28:49.918Z,99000.35
2023-06-30T16:31:17.516Z,98998.73
2023-06-30T16:33:44.889Z,99001.64
2023-06-30T16:36:12.301Z,99000.36
2023-06-30T16:38:42.346Z,99000.60
2023-06-30T16:41:09.688Z,99007.91
2023-06-30T16:43:37.036Z,99008.72
2023-06-30T16:46:04.389Z,99011.17
2023-06-30T16:48:31.892Z,99009.05
2023-06-30T16:51:02.181Z,99007.71
2023-06-30T16:53:29.559Z,99005.45
2023-06-30T16:55:57.331Z,99007.01
2023-06-30T16:58:26.377Z,99009.75
2023-06-30T17:00:54.188Z,99013.84
2023-06-30T17:03:21.740Z,99023.81
2023-06-30T17:05:49.656Z,99028.14
2023-06-30T17:08:17.273Z,99032.48
2023-06-30T17:10:46.742Z,99029.36
2023-06-30T17:13:14.381Z,99028.45
2023-06-30T17:15:41.722Z,99030.36
2023-06-30T17:18:09.344Z,99032.39
2023-06-30T17:20:37.117Z,99034.30
2023-06-30T17:23:06.595Z,99032.95
2023-06-30T17:25:33.951Z,99037.66
2023-06-30T17:28:01.440Z,99041.53
2023-06-30T17:30:28.820Z,99042.84
2023-06-30T17:32:56.192Z,99043.77
2023-06-30T17:35:24.829Z,99046.19
2023-06-30T17:37:52.907Z,99045.52
2023-06-30T17:40:21.410Z,99048.73
2023-06-30T17:42:48.805Z,99043.83
2023-06-30T17:45:16.318Z,99040.84
2023-06-30T17:47:43.745Z,99043.82
2023-06-30T17:50:11.406Z,99044.02
2023-06-30T17:52:38.793Z,99043.51
2023-06-30T17:55:06.432Z,99044.54
2023-06-30T17:57:33.834Z,99047.25
2023-06-30T18:00:01.236Z,99043.48
2023-06-30T18:02:28.603Z,99050.91
2023-06-30T18:04:56.111Z,99053.54
2023-06-30T18:07:23.690Z,99055.58
2023-06-30T18:09:51.721Z,99057.05
2023-06-30T18:12:19.103Z,99057.86
2023-06-30T18:14:46.394Z,99061.08
2023-06-30T18:17:16.257Z,99060.42
2023-06-30T18:19:43.705Z,99060.79
2023-06-30T18:22:11.183Z,99063.77
2023-06-30T18:24:38.629Z,99066.39
2023-06-30T18:27:06.594Z,99066.23
2023-06-30T18:29:33.939Z,99067.41
2023-06-30T18:32:01.520Z,99070.33
2023-06-30T18:34:29.025Z,99072.66
2023-06-30T18:36:56.416Z,99078.96
2023-06-30T18:39:23.929Z,99077.41
2023-06-30T18:41:51.354Z,99079.25
2023-06-30T18:44:18.641Z,99076.91
2023-06-30T18:46:46.073Z,99078.34
2023-06-30T18:49:13.591Z,99084.49
2023-06-30T18:51:43.761Z,99087.23
2023-06-30T18:54:11.294Z,99088.09
2023-06-30T18:56:39.053Z,99087.55
2023-06-30T18:59:06.711Z,99088.04
2023-06-30T19:01:34.197Z,99085.40
2023-06-30T19:04:01.825Z,99086.11
2023-06-30T19:06:29.402Z,99088.58
2023-06-30T19:08:57.216Z,99087.24
2023-06-30T19:11:24.730Z,99092.11
2023-06-30T19:13:52.288Z,99093.00
2023-06-30T19:16:19.918Z,99094.41
2023-06-30T19:18:47.515Z,99096.40
2023-06-30T19:21:15.061Z,99095.83
2023-06-30T19:23:42.563Z,99094.95
2023-06-30T19:26:10.531Z,99095.84
2023-06-30T19:28:40.252Z,99098.63
2023-06-30T19:31:08.054Z,99097.20
2023-06-30T19:33:37.451Z,99099.58
2023-06-30T19:36:05.189Z,99098.91
2023-06-30T19:38:32.565Z,99094.60
2023-06-30T19:41:00.002Z,99096.17
2023-06-30T19:43:27.480Z,99095.50
2023-06-30T19:45:54.880Z,99099.83
2023-06-30T19:48:22.273Z,99094.70
2023-06-30T19:50:50.592Z,99095.36
2023-06-30T19:53:18.099Z,99098.19
2023-06-30T19:55:46.267Z,99097.73
2023-06-30T19:58:14.134Z,99094.78
2023-06-30T20:00:41.539Z,99093.52
2023-06-30T20:03:09.015Z,99092.28
2023-06-30T20:05:36.797Z,99094.77
2023-06-30T20:08:04.638Z,99099.12
2023-06-30T20:10:31.941Z,99095.45
2023-06-30T20:12:59.261Z,99102.70
2023-06-30T20:15:27.081Z,99098.91
2023-06-30T20:17:54.910Z,99098.79
2023-06-30T20:20:22.522Z,99100.57
2023-06-30T20:22:49.918Z,99100.92
2023-06-30T20:25:19.600Z,99101.45
2023-06-30T20:27:47.173Z,99102.17
2023-06-30T20:30:14.509Z,99104.23
2023-06-30T20:32:41.996Z,99105.05
2023-06-30T20:35:10.213Z,99101.49
2023-06-30T20:37:37.723Z,99099.80
2023-06-30T20:40:05.781Z,99099.52
2023-06-30T20:42:33.167Z,99094.65
2023-06-30T20:45:00.505Z,99100.27
2023-06-30T20:47:28.481Z,99094.45
2023-06-30T20:49:55.922Z,99095.71
2023-06-30T20:52:23.313Z,99091.40
2023-06-30T20:54:50.635Z,99092.02
2023-06-30T20:57:17.992Z,99092.25
2023-06-30T20:59:45.340Z,99096.85
2023-06-30T21:02:12.915Z,99098.13
2023-06-30T21:04:40.513Z,99097.02
2023-06-30T21:07:07.847Z,99100.34
2023-06-30T21:09:36.822Z,99103.83
2023-06-30T21:12:04.508Z,99098.58
2023-06-30T21:14:31.840Z,99098.66
2023-06-30T21:16:59.251Z,99094.40
2023-06-30T21:19:26.620Z,99091.50
2023-06-30T21:21:54.108Z,99087.36
2023-06-30T21:24:21.442Z,99088.81
2023-06-30T21:26:48.729Z,99084.41
2023-06-30T21:29:16.085Z,99081.73
2023-06-30T21:31:43.483Z,99083.98
2023-06-30T21:34:11.033Z,99078.36
2023-06-30T21:36:39.621Z,99075.63
2023-06-30T21:39:07.576Z,99077.75
2023-06-30T21:41:36.466Z,99078.09
2023-06-30T21:44:04.198Z,99079.38
2023-06-30T21:46:31.550Z,99077.73
2023-06-30T21:48:58.940Z,99078.30
2023-06-30T21:51:26.272Z,99076.17
2023-06-30T21:53:53.631Z,99075.50
2023-06-30T21:56:21.021Z,99077.05
2023-06-30T21:58:48.342Z,99083.45
2023-06-30T22:01:20.172Z,99083.02
2023-06-30T22:03:50.779Z,99086.88
2023-06-30T22:06:18.228Z,99090.02
2023-06-30T22:08:45.562Z,99091.41
2023-06-30T22:11:13.064Z,99093.18
2023-06-30T22:13:40.407Z,99097.94
2023-06-30T22:16:07.747Z,99097.14
2023-06-30T22:18:35.043Z,99099.19
2023-06-30T22:21:04.229Z,99103.66
2023-06-30T22:23:31.577Z,99100.96
2023-06-30T22:25:58.965Z,99102.13
2023-06-30T22:28:26.286Z,99102.15
2023-06-30T22:30:53.677Z,99100.40
2023-06-30T22:33:21.048Z,99107.66
2023-06-30T22:35:48.354Z,99106.33
2023-06-30T22:38:15.689Z,99102.67
2023-06-30T22:40:43.027Z,99099.15
2023-06-30T22:43:10.363Z,99101.36
2023-06-30T22:45:37.928Z,99104.08
2023-06-30T22:48:05.612Z,99106.81
2023-06-30T22:50:33.050Z,99103.15
2023-06-30T22:53:00.408Z,99103.34
2023-06-30T22:55:28.212Z,99100.30
2023-06-30T22:57:55.528Z,99096.79
2023-06-30T23:00:22.888Z,99100.61
2023-06-30T23:02:50.205Z,99100.66
2023-06-30T23:05:17.485Z,99101.45
2023-06-30T23:07:45.419Z,99098.30
2023-06-30T23:10:12.832Z,99102.48
2023-06-30T23:12:40.280Z,99103.61
2023-06-30T23:15:07.884Z,99108.89
2023-06-30T23:17:35.390Z,99112.53
2023-06-30T23:20:04.016Z,99112.02
2023-06-30T23:22:32.148Z,99114.39
2023-06-30T23:25:01.035Z,99114.80
2023-06-30T23:27:30.530Z,99112.48
2023-06-30T23:29:57.998Z,99117.20
2023-06-30T23:32:25.514Z,99118.04
2023-06-30T23:34:53.034Z,99119.08
2023-06-30T23:37:20.440Z,99118.73
2023-06-30T23:39:52.247Z,99122.64
2023-06-30T23:42:19.659Z,99125.45
2023-06-30T23:44:46.979Z,99129.98
2023-06-30T23:47:16.992Z,99129.44
2023-06-30T23:49:46.224Z,99126.80
2023-06-30T23:52:13.591Z,99125.05
2023-06-30T23:54:41.016Z,99127.40
2023-06-30T23:57:08.330Z,99123.85
2023-06-30T23:59:35.638Z,99134.26
